sensor_id;sensor_type;location;lat;lon;timestamp;pressure;altitude;pressure_sealevel;temperature;humidity
13594;BME280;6449;47.666;9.160;2023-04-26T00:04:38;96992.94;;;8.14;100.00
13594;BME280;6449;47.666;9.160;2023-04-26T00:09:32;96985.63;;;8.19;100.00
13594;BME280;6449;47.666;9.160;2023-04-26T00:14:26;96990.25;;;8.16;100.00
13594;BME280;6449;47.666;9.160;2023-04-26T00:19:19;97002.97;;;8.20;100.00
13594;BME280;6449;47.666;9.160;2023-04-26T00:24:14;97002.22;;;8.05;100.00
13594;BME280;6449;47.666;9.160;2023-04-26T00:29:07;97007.56;;;7.90;100.00
13594;BME280;6449;47.666;9.160;2023-04-26T00:34:01;97010.78;;;7.93;100.00
13594;BME280;6449;47.666;9.160;2023-04-26T00:38:54;97011.72;;;8.06;100.00
13594;BME280;6449;47.666;9.160;2023-04-26T00:43:49;97005.84;;;8.03;100.00
13594;BME280;6449;47.666;9.160;2023-04-26T00:48:42;97007.56;;;7.90;100.00
13594;BME280;6449;47.666;9.160;2023-04-26T00:53:36;97007.34;;;7.93;100.00
13594;BME280;6449;47.666;9.160;2023-04-26T00:58:32;97010.03;;;7.78;100.00
13594;BME280;6449;47.666;9.160;2023-04-26T01:03:27;97000.69;;;7.74;100.00
13594;BME280;6449;47.666;9.160;2023-04-26T01:08:22;97000.91;;;7.57;100.00
13594;BME280;6449;47.666;9.160;2023-04-26T01:13:16;96997.28;;;7.59;100.00
13594;BME280;6449;47.666;9.160;2023-04-26T01:18:10;97005.88;;;7.47;100.00
13594;BME280;6449;47.666;9.160;2023-04-26T01:23:05;97002.69;;;7.56;100.00
13594;BME280;6449;47.666;9.160;2023-04-26T01:27:58;97011.81;;;7.64;100.00
13594;BME280;6449;47.666;9.160;2023-04-26T01:32:51;97006.03;;;7.44;100.00
13594;BME280;6449;47.666;9.160;2023-04-26T01:37:45;97007.47;;;7.35;100.00
13594;BME280;6449;47.666;9.160;2023-04-26T01:42:39;97009.03;;;7.52;100.00
13594;BME280;6449;47.666;9.160;2023-04-26T01:47:33;97007.69;;;7.59;100.00
13594;BME280;6449;47.666;9.160;2023-04-26T01:52:26;97006.31;;;7.68;100.00
13594;BME280;6449;47.666;9.160;2023-04-26T01:57:20;97004.91;;;7.63;100.00
13594;BME280;6449;47.666;9.160;2023-04-26T02:02:16;97005.97;;;7.46;100.00
13594;BME280;6449;47.666;9.160;2023-04-26T02:07:09;97001.41;;;7.35;100.00
13594;BME280;6449;47.666;9.160;2023-04-26T02:12:03;97002.25;;;7.35;100.00
13594;BME280;6449;47.666;9.160;2023-04-26T02:16:56;96987.06;;;7.42;100.00
13594;BME280;6449;47.666;9.160;2023-04-26T02:21:56;96980.16;;;7.27;100.00
13594;BME280;6449;47.666;9.160;2023-04-26T02:26:50;96976.34;;;7.18;100.00
13594;BME280;6449;47.666;9.160;2023-04-26T02:31:44;96976.53;;;7.15;100.00
13594;BME280;6449;47.666;9.160;2023-04-26T02:36:39;96974.78;;;7.16;100.00
13594;BME280;6449;47.666;9.160;2023-04-26T02:41:34;96978.19;;;7.02;100.00
13594;BME280;6449;47.666;9.160;2023-04-26T02:46:27;96977.09;;;7.20;100.00
13594;BME280;6449;47.666;9.160;2023-04-26T02:51:21;96979.69;;;7.06;100.00
13594;BME280;6449;47.666;9.160;2023-04-26T02:56:14;96980.75;;;7.03;100.00
13594;BME280;6449;47.666;9.160;2023-04-26T03:01:09;96983.13;;;6.92;100.00
13594;BME280;6449;47.666;9.160;2023-04-26T03:06:04;96995.69;;;6.71;100.00
13594;BME280;6449;47.666;9.160;2023-04-26T03:10:57;96981.19;;;6.96;100.00
13594;BME280;6449;47.666;9.160;2023-04-26T03:15:50;96974.66;;;7.03;100.00
13594;BME280;6449;47.666;9.160;2023-04-26T03:20:46;96982.13;;;7.09;100.00
13594;BME280;6449;47.666;9.160;2023-04-26T03:25:40;96975.78;;;7.13;100.00
13594;BME280;6449;47.666;9.160;2023-04-26T03:30:33;96985.38;;;7.13;100.00
13594;BME280;6449;47.666;9.160;2023-04-26T03:35:27;96973.94;;;7.15;100.00
13594;BME280;6449;47.666;9.160;2023-04-26T03:40:21;96982.09;;;6.66;100.00
13594;BME280;6449;47.666;9.160;2023-04-26T03:45:15;96979.09;;;6.58;100.00
13594;BME280;6449;47.666;9.160;2023-04-26T03:50:09;96970.28;;;6.75;100.00
13594;BME280;6449;47.666;9.160;2023-04-26T03:55:03;96976.22;;;6.63;100.00
13594;BME280;6449;47.666;9.160;2023-04-26T03:59:58;96972.13;;;6.73;100.00
13594;BME280;6449;47.666;9.160;2023-04-26T04:04:51;96973.84;;;6.88;100.00
13594;BME280;6449;47.666;9.160;2023-04-26T04:09:45;96974.66;;;7.03;100.00
13594;BME280;6449;47.666;9.160;2023-04-26T04:14:38;96970.09;;;7.06;100.00
13594;BME280;6449;47.666;9.160;2023-04-26T04:19:33;96966.78;;;7.04;100.00
13594;BME280;6449;47.666;9.160;2023-04-26T04:24:26;96971.03;;;6.91;100.00
13594;BME280;6449;47.666;9.160;2023-04-26T04:29:20;96979.50;;;6.95;100.00
13594;BME280;6449;47.666;9.160;2023-04-26T04:34:14;96983.13;;;6.92;100.00
13594;BME280;6449;47.666;9.160;2023-04-26T04:39:09;96973.81;;;7.02;100.00
13594;BME280;6449;47.666;9.160;2023-04-26T04:44:07;96970.88;;;7.08;100.00
13594;BME280;6449;47.666;9.160;2023-04-26T04:49:00;96973.75;;;7.04;100.00
13594;BME280;6449;47.666;9.160;2023-04-26T04:53:54;96980.50;;;6.92;100.00
13594;BME280;6449;47.666;9.160;2023-04-26T04:58:49;96979.41;;;6.82;100.00
13594;BME280;6449;47.666;9.160;2023-04-26T05:03:42;96974.19;;;6.96;100.00
13594;BME280;6449;47.666;9.160;2023-04-26T05:08:36;96982.66;;;7.43;100.00
13594;BME280;6449;47.666;9.160;2023-04-26T05:13:29;96980.34;;;7.24;100.00
13594;BME280;6449;47.666;9.160;2023-04-26T05:18:25;96985.88;;;7.19;100.00
13594;BME280;6449;47.666;9.160;2023-04-26T05:23:18;96987.03;;;7.14;100.00
13594;BME280;6449;47.666;9.160;2023-04-26T05:28:11;96990.00;;;7.50;100.00
13594;BME280;6449;47.666;9.160;2023-04-26T05:33:05;96988.78;;;7.56;100.00
13594;BME280;6449;47.666;9.160;2023-04-26T05:38:02;96990.09;;;7.63;100.00
13594;BME280;6449;47.666;9.160;2023-04-26T05:42:56;96982.41;;;7.88;100.00
13594;BME280;6449;47.666;9.160;2023-04-26T05:47:49;96979.09;;;8.26;100.00
13594;BME280;6449;47.666;9.160;2023-04-26T05:52:43;96996.84;;;8.21;100.00
13594;BME280;6449;47.666;9.160;2023-04-26T05:57:38;96995.94;;;8.08;100.00
13594;BME280;6449;47.666;9.160;2023-04-26T06:02:31;96986.16;;;8.24;100.00
13594;BME280;6449;47.666;9.160;2023-04-26T06:07:24;96988.78;;;8.24;100.00
13594;BME280;6449;47.666;9.160;2023-04-26T06:12:20;96991.16;;;8.14;100.00
13594;BME280;6449;47.666;9.160;2023-04-26T06:17:14;96997.03;;;8.18;100.00
13594;BME280;6449;47.666;9.160;2023-04-26T06:22:08;96998.50;;;8.22;100.00
13594;BME280;6449;47.666;9.160;2023-04-26T06:27:01;96992.50;;;8.07;100.00
13594;BME280;6449;47.666;9.160;2023-04-26T06:31:54;97003.44;;;8.27;100.00
13594;BME280;6449;47.666;9.160;2023-04-26T06:36:49;97008.84;;;8.51;100.00
13594;BME280;6449;47.666;9.160;2023-04-26T06:41:43;97006.28;;;8.76;100.00
13594;BME280;6449;47.666;9.160;2023-04-26T06:46:36;97011.31;;;9.30;100.00
13594;BME280;6449;47.666;9.160;2023-04-26T06:51:30;97017.38;;;9.56;100.00
13594;BME280;6449;47.666;9.160;2023-04-26T06:56:25;97031.38;;;9.68;100.00
13594;BME280;6449;47.666;9.160;2023-04-26T07:01:18;97031.25;;;9.82;100.00
13594;BME280;6449;47.666;9.160;2023-04-26T07:06:11;97039.22;;;9.81;100.00
13594;BME280;6449;47.666;9.160;2023-04-26T07:11:09;97039.56;;;10.00;100.00
13594;BME280;6449;47.666;9.160;2023-04-26T07:16:04;97051.72;;;10.14;100.00
13594;BME280;6449;47.666;9.160;2023-04-26T07:20:57;97053.94;;;10.07;100.00
13594;BME280;6449;47.666;9.160;2023-04-26T07:25:51;97054.94;;;9.68;100.00
13594;BME280;6449;47.666;9.160;2023-04-26T07:30:46;97049.09;;;9.26;100.00
13594;BME280;6449;47.666;9.160;2023-04-26T07:35:42;97048.06;;;9.03;100.00
13594;BME280;6449;47.666;9.160;2023-04-26T07:40:35;97038.00;;;8.97;100.00
13594;BME280;6449;47.666;9.160;2023-04-26T07:45:29;97023.16;;;8.85;100.00
13594;BME280;6449;47.666;9.160;2023-04-26T07:50:23;97033.41;;;9.01;100.00
13594;BME280;6449;47.666;9.160;2023-04-26T07:55:18;97029.97;;;9.26;100.00
13594;BME280;6449;47.666;9.160;2023-04-26T08:00:13;97028.19;;;9.39;100.00
13594;BME280;6449;47.666;9.160;2023-04-26T08:05:08;97035.81;;;9.42;100.00
13594;BME280;6449;47.666;9.160;2023-04-26T08:10:01;97032.38;;;10.28;100.00
13594;BME280;6449;47.666;9.160;2023-04-26T08:14:58;97035.25;;;10.84;100.00
13594;BME280;6449;47.666;9.160;2023-04-26T08:19:52;97040.69;;;11.16;100.00
13594;BME280;6449;47.666;9.160;2023-04-26T08:24:47;97039.69;;;11.41;100.00
13594;BME280;6449;47.666;9.160;2023-04-26T08:29:41;97045.06;;;11.73;100.00
13594;BME280;6449;47.666;9.160;2023-04-26T08:34:36;97038.16;;;11.94;100.00
13594;BME280;6449;47.666;9.160;2023-04-26T08:39:29;97041.00;;;11.91;100.00
13594;BME280;6449;47.666;9.160;2023-04-26T08:44:24;97046.13;;;12.15;100.00
13594;BME280;6449;47.666;9.160;2023-04-26T08:49:30;97045.84;;;12.18;100.00
13594;BME280;6449;47.666;9.160;2023-04-26T08:54:28;97052.56;;;12.11;100.00
13594;BME280;6449;47.666;9.160;2023-04-26T08:59:22;97060.09;;;11.82;100.00
13594;BME280;6449;47.666;9.160;2023-04-26T09:04:16;97055.56;;;11.95;100.00
13594;BME280;6449;47.666;9.160;2023-04-26T09:09:12;97062.63;;;11.84;100.00
13594;BME280;6449;47.666;9.160;2023-04-26T09:14:11;97054.84;;;11.60;100.00
13594;BME280;6449;47.666;9.160;2023-04-26T09:19:04;97053.66;;;11.64;100.00
13594;BME280;6449;47.666;9.160;2023-04-26T09:23:59;97054.47;;;11.64;100.00
13594;BME280;6449;47.666;9.160;2023-04-26T09:34:16;97044.09;;;12.07;100.00
13594;BME280;6449;47.666;9.160;2023-04-26T09:39:10;97042.38;;;12.29;100.00
13594;BME280;6449;47.666;9.160;2023-04-26T09:44:03;97038.28;;;12.79;100.00
13594;BME280;6449;47.666;9.160;2023-04-26T09:49:00;97028.47;;;13.23;100.00
13594;BME280;6449;47.666;9.160;2023-04-26T09:53:56;97026.44;;;13.57;100.00
13594;BME280;6449;47.666;9.160;2023-04-26T09:58:59;97022.22;;;13.76;100.00
13594;BME280;6449;47.666;9.160;2023-04-26T10:03:55;97016.91;;;13.97;100.00
13594;BME280;6449;47.666;9.160;2023-04-26T10:08:49;97029.03;;;13.78;100.00
13594;BME280;6449;47.666;9.160;2023-04-26T10:13:44;97018.66;;;13.56;100.00
13594;BME280;6449;47.666;9.160;2023-04-26T10:18:38;97022.97;;;13.15;100.00
13594;BME280;6449;47.666;9.160;2023-04-26T10:23:32;97024.06;;;12.71;100.00
13594;BME280;6449;47.666;9.160;2023-04-26T10:28:54;97017.72;;;12.73;100.00
13594;BME280;6449;47.666;9.160;2023-04-26T10:34:17;97009.41;;;12.89;100.00
13594;BME280;6449;47.666;9.160;2023-04-26T10:39:20;96988.91;;;13.14;100.00
13594;BME280;6449;47.666;9.160;2023-04-26T10:44:38;96985.50;;;13.44;100.00
13594;BME280;6449;47.666;9.160;2023-04-26T10:49:44;96986.03;;;13.47;100.00
13594;BME280;6449;47.666;9.160;2023-04-26T10:55:04;96969.31;;;13.48;100.00
13594;BME280;6449;47.666;9.160;2023-04-26T11:00:29;96968.19;;;14.01;100.00
13594;BME280;6449;47.666;9.160;2023-04-26T11:05:52;96962.56;;;13.65;94.35
13594;BME280;6449;47.666;9.160;2023-04-26T11:10:58;96956.16;;;14.08;100.00
13594;BME280;6449;47.666;9.160;2023-04-26T11:16:00;96942.44;;;14.53;92.62
13594;BME280;6449;47.666;9.160;2023-04-26T11:20:56;96938.97;;;14.72;88.71
13594;BME280;6449;47.666;9.160;2023-04-26T11:25:50;96910.34;;;14.38;72.78
13594;BME280;6449;47.666;9.160;2023-04-26T11:30:47;96931.44;;;14.09;77.85
13594;BME280;6449;47.666;9.160;2023-04-26T11:35:43;96939.22;;;14.20;85.62
13594;BME280;6449;47.666;9.160;2023-04-26T11:40:37;96939.63;;;14.15;89.82
13594;BME280;6449;47.666;9.160;2023-04-26T11:45:32;96921.31;;;14.04;83.95
13594;BME280;6449;47.666;9.160;2023-04-26T11:50:28;96918.50;;;13.86;78.74
13594;BME280;6449;47.666;9.160;2023-04-26T11:55:29;96937.00;;;13.96;84.91
13594;BME280;6449;47.666;9.160;2023-04-26T12:00:25;96937.50;;;13.90;92.08
13594;BME280;6449;47.666;9.160;2023-04-26T12:05:27;96919.50;;;14.14;88.91
13594;BME280;6449;47.666;9.160;2023-04-26T12:10:25;96930.91;;;14.54;94.29
13594;BME280;6449;47.666;9.160;2023-04-26T12:15:22;96923.56;;;14.57;83.34
13594;BME280;6449;47.666;9.160;2023-04-26T12:20:17;96929.97;;;14.55;85.89
13594;BME280;6449;47.666;9.160;2023-04-26T12:25:11;96934.09;;;14.28;82.43
13594;BME280;6449;47.666;9.160;2023-04-26T12:30:06;96940.06;;;14.21;89.33
13594;BME280;6449;47.666;9.160;2023-04-26T12:35:01;96924.13;;;14.22;78.17
13594;BME280;6449;47.666;9.160;2023-04-26T12:39:55;96933.41;;;14.36;85.60
13594;BME280;6449;47.666;9.160;2023-04-26T12:44:48;96915.09;;;14.44;80.56
13594;BME280;6449;47.666;9.160;2023-04-26T12:49:41;96906.34;;;14.53;81.54
13594;BME280;6449;47.666;9.160;2023-04-26T12:54:36;96917.56;;;14.46;83.12
13594;BME280;6449;47.666;9.160;2023-04-26T12:59:30;96896.75;;;14.23;72.73
13594;BME280;6449;47.666;9.160;2023-04-26T13:04:23;96902.88;;;14.33;79.70
13594;BME280;6449;47.666;9.160;2023-04-26T13:09:17;96883.03;;;14.29;75.14
13594;BME280;6449;47.666;9.160;2023-04-26T13:14:12;96888.28;;;14.10;74.46
13594;BME280;6449;47.666;9.160;2023-04-26T13:19:05;96897.88;;;14.21;76.85
13594;BME280;6449;47.666;9.160;2023-04-26T13:23:59;96899.41;;;14.33;82.64
13594;BME280;6449;47.666;9.160;2023-04-26T13:28:52;96893.16;;;14.34;78.53
13594;BME280;6449;47.666;9.160;2023-04-26T13:33:48;96876.75;;;14.21;71.09
13594;BME280;6449;47.666;9.160;2023-04-26T13:38:42;96879.00;;;14.35;75.91
13594;BME280;6449;47.666;9.160;2023-04-26T13:43:36;96870.66;;;14.39;71.09
13594;BME280;6449;47.666;9.160;2023-04-26T13:48:29;96859.69;;;14.44;70.48
13594;BME280;6449;47.666;9.160;2023-04-26T13:53:25;96854.28;;;14.36;71.94
13594;BME280;6449;47.666;9.160;2023-04-26T13:58:18;96850.66;;;14.37;73.36
13594;BME280;6449;47.666;9.160;2023-04-26T14:03:12;96834.44;;;14.32;64.02
13594;BME280;6449;47.666;9.160;2023-04-26T14:08:05;96850.97;;;14.34;77.41
13594;BME280;6449;47.666;9.160;2023-04-26T14:13:00;96857.50;;;14.49;79.56
13594;BME280;6449;47.666;9.160;2023-04-26T14:17:53;96847.44;;;14.62;71.31
13594;BME280;6449;47.666;9.160;2023-04-26T14:22:47;96838.06;;;14.50;65.78
13594;BME280;6449;47.666;9.160;2023-04-26T14:27:41;96839.84;;;14.40;64.17
13594;BME280;6449;47.666;9.160;2023-04-26T14:32:36;96838.44;;;14.46;68.79
13594;BME280;6449;47.666;9.160;2023-04-26T14:37:29;96837.88;;;14.42;64.68
13594;BME280;6449;47.666;9.160;2023-04-26T14:42:23;96828.88;;;14.45;62.58
13594;BME280;6449;47.666;9.160;2023-04-26T14:47:16;96833.75;;;14.49;64.81
13594;BME280;6449;47.666;9.160;2023-04-26T14:52:11;96851.34;;;14.49;78.78
13594;BME280;6449;47.666;9.160;2023-04-26T14:57:04;96860.63;;;14.43;84.99
13594;BME280;6449;47.666;9.160;2023-04-26T15:01:58;96870.38;;;14.52;92.74
13594;BME280;6449;47.666;9.160;2023-04-26T15:06:51;96862.88;;;14.38;92.40
13594;BME280;6449;47.666;9.160;2023-04-26T15:11:46;96858.16;;;14.32;89.31
13594;BME280;6449;47.666;9.160;2023-04-26T15:16:39;96857.31;;;14.41;86.22
13594;BME280;6449;47.666;9.160;2023-04-26T15:21:33;96856.91;;;14.46;91.61
13594;BME280;6449;47.666;9.160;2023-04-26T15:26:26;96861.91;;;14.39;92.01
13594;BME280;6449;47.666;9.160;2023-04-26T15:31:23;96861.78;;;14.31;89.12
13594;BME280;6449;47.666;9.160;2023-04-26T15:36:16;96849.44;;;14.12;88.32
13594;BME280;6449;47.666;9.160;2023-04-26T15:41:11;96857.06;;;14.15;94.32
13594;BME280;6449;47.666;9.160;2023-04-26T15:46:04;96863.47;;;14.22;97.75
13594;BME280;6449;47.666;9.160;2023-04-26T15:51:04;96851.66;;;14.16;84.04
13594;BME280;6449;47.666;9.160;2023-04-26T15:55:57;96839.31;;;14.07;83.02
13594;BME280;6449;47.666;9.160;2023-04-26T16:00:51;96847.66;;;14.03;87.15
13594;BME280;6449;47.666;9.160;2023-04-26T16:05:44;96839.19;;;14.09;83.22
13594;BME280;6449;47.666;9.160;2023-04-26T16:10:39;96827.66;;;14.00;78.86
13594;BME280;6449;47.666;9.160;2023-04-26T16:15:33;96824.47;;;13.97;77.88
13594;BME280;6449;47.666;9.160;2023-04-26T16:20:26;96834.31;;;13.95;81.81
13594;BME280;6449;47.666;9.160;2023-04-26T16:25:20;96831.41;;;13.88;77.80
13594;BME280;6449;47.666;9.160;2023-04-26T16:30:15;96842.09;;;13.86;85.25
13594;BME280;6449;47.666;9.160;2023-04-26T16:35:09;96848.19;;;13.87;88.45
13594;BME280;6449;47.666;9.160;2023-04-26T16:40:03;96834.44;;;13.83;78.61
13594;BME280;6449;47.666;9.160;2023-04-26T16:44:57;96829.31;;;13.82;76.28
13594;BME280;6449;47.666;9.160;2023-04-26T16:49:52;96829.88;;;13.76;77.44
13594;BME280;6449;47.666;9.160;2023-04-26T16:54:45;96850.13;;;13.75;84.27
13594;BME280;6449;47.666;9.160;2023-04-26T16:59:38;96835.44;;;13.82;81.43
13594;BME280;6449;47.666;9.160;2023-04-26T17:04:32;96852.47;;;13.69;88.07
13594;BME280;6449;47.666;9.160;2023-04-26T17:09:27;96861.19;;;13.59;100.00
13594;BME280;6449;47.666;9.160;2023-04-26T17:14:21;96847.59;;;13.54;84.70
13594;BME280;6449;47.666;9.160;2023-04-26T17:19:14;96849.81;;;13.49;89.48
13594;BME280;6449;47.666;9.160;2023-04-26T17:24:08;96850.34;;;13.43;90.66
13594;BME280;6449;47.666;9.160;2023-04-26T17:29:03;96859.47;;;13.39;97.41
13594;BME280;6449;47.666;9.160;2023-04-26T17:33:56;96859.31;;;13.21;91.07
13594;BME280;6449;47.666;9.160;2023-04-26T17:38:49;96861.31;;;13.18;96.91
13594;BME280;6449;47.666;9.160;2023-04-26T17:43:43;96870.72;;;13.10;91.67
13594;BME280;6449;47.666;9.160;2023-04-26T17:48:38;96878.06;;;13.07;96.54
13594;BME280;6449;47.666;9.160;2023-04-26T17:53:31;96871.28;;;13.14;94.42
13594;BME280;6449;47.666;9.160;2023-04-26T17:58:25;96904.75;;;13.02;100.00
13594;BME280;6449;47.666;9.160;2023-04-26T18:03:18;96901.69;;;12.97;100.00
13594;BME280;6449;47.666;9.160;2023-04-26T18:08:14;96893.63;;;12.89;100.00
13594;BME280;6449;47.666;9.160;2023-04-26T18:13:07;96891.56;;;12.93;100.00
13594;BME280;6449;47.666;9.160;2023-04-26T18:18:02;96891.09;;;12.88;99.63
13594;BME280;6449;47.666;9.160;2023-04-26T18:22:59;96896.91;;;12.81;100.00
13594;BME280;6449;47.666;9.160;2023-04-26T18:27:53;96905.91;;;12.79;100.00
13594;BME280;6449;47.666;9.160;2023-04-26T18:32:50;96913.34;;;12.74;100.00
13594;BME280;6449;47.666;9.160;2023-04-26T18:37:44;96909.97;;;12.51;100.00
13594;BME280;6449;47.666;9.160;2023-04-26T18:42:37;96924.41;;;12.36;100.00
13594;BME280;6449;47.666;9.160;2023-04-26T18:47:32;96917.63;;;12.33;100.00
13594;BME280;6449;47.666;9.160;2023-04-26T18:52:25;96919.28;;;12.34;100.00
13594;BME280;6449;47.666;9.160;2023-04-26T18:57:19;96923.53;;;12.25;100.00
13594;BME280;6449;47.666;9.160;2023-04-26T19:02:13;96935.09;;;12.23;100.00
13594;BME280;6449;47.666;9.160;2023-04-26T19:07:08;96939.66;;;12.21;100.00
13594;BME280;6449;47.666;9.160;2023-04-26T19:12:02;96946.34;;;12.14;100.00
13594;BME280;6449;47.666;9.160;2023-04-26T19:16:56;96957.75;;;12.03;100.00
13594;BME280;6449;47.666;9.160;2023-04-26T19:21:50;96959.34;;;11.94;100.00
13594;BME280;6449;47.666;9.160;2023-04-26T19:26:45;96961.22;;;11.92;100.00
13594;BME280;6449;47.666;9.160;2023-04-26T19:31:39;96962.06;;;11.93;100.00
13594;BME280;6449;47.666;9.160;2023-04-26T19:36:32;96965.16;;;11.98;100.00
13594;BME280;6449;47.666;9.160;2023-04-26T19:41:27;96966.59;;;12.02;100.00
13594;BME280;6449;47.666;9.160;2023-04-26T19:46:22;96970.69;;;11.95;100.00
13594;BME280;6449;47.666;9.160;2023-04-26T19:51:16;96981.31;;;11.93;100.00
13594;BME280;6449;47.666;9.160;2023-04-26T19:56:10;96984.63;;;11.95;100.00
13594;BME280;6449;47.666;9.160;2023-04-26T20:01:03;96990.13;;;11.81;100.00
13594;BME280;6449;47.666;9.160;2023-04-26T20:05:59;96988.00;;;11.64;100.00
13594;BME280;6449;47.666;9.160;2023-04-26T20:10:52;96985.47;;;11.73;100.00
13594;BME280;6449;47.666;9.160;2023-04-26T20:15:45;96985.13;;;11.78;100.00
13594;BME280;6449;47.666;9.160;2023-04-26T20:20:39;96992.41;;;11.86;100.00
13594;BME280;6449;47.666;9.160;2023-04-26T20:25:34;96995.38;;;11.70;100.00
13594;BME280;6449;47.666;9.160;2023-04-26T20:30:27;96997.06;;;11.60;100.00
13594;BME280;6449;47.666;9.160;2023-04-26T20:35:22;97002.78;;;11.65;100.00
13594;BME280;6449;47.666;9.160;2023-04-26T20:40:15;97003.28;;;11.59;100.00
13594;BME280;6449;47.666;9.160;2023-04-26T20:45:11;96997.56;;;11.42;100.00
13594;BME280;6449;47.666;9.160;2023-04-26T20:50:06;97006.88;;;11.46;100.00
13594;BME280;6449;47.666;9.160;2023-04-26T20:55:00;97014.47;;;11.49;100.00
13594;BME280;6449;47.666;9.160;2023-04-26T20:59:53;97015.69;;;11.45;100.00
13594;BME280;6449;47.666;9.160;2023-04-26T21:04:48;97012.59;;;11.51;100.00
13594;BME280;6449;47.666;9.160;2023-04-26T21:09:41;97017.38;;;11.58;100.00
13594;BME280;6449;47.666;9.160;2023-04-26T21:14:35;97007.19;;;11.75;100.00
13594;BME280;6449;47.666;9.160;2023-04-26T21:19:28;97010.44;;;11.68;100.00
13594;BME280;6449;47.666;9.160;2023-04-26T21:24:23;97019.38;;;11.54;100.00
13594;BME280;6449;47.666;9.160;2023-04-26T21:29:17;97026.91;;;11.36;100.00
13594;BME280;6449;47.666;9.160;2023-04-26T21:34:10;97018.56;;;11.42;100.00
13594;BME280;6449;47.666;9.160;2023-04-26T21:39:03;97023.31;;;11.37;100.00
13594;BME280;6449;47.666;9.160;2023-04-26T21:43:58;97023.09;;;11.40;100.00
13594;BME280;6449;47.666;9.160;2023-04-26T21:48:52;97021.19;;;11.42;100.00
13594;BME280;6449;47.666;9.160;2023-04-26T21:53:45;97022.84;;;11.43;100.00
13594;BME280;6449;47.666;9.160;2023-04-26T21:58:39;97026.78;;;11.38;100.00
13594;BME280;6449;47.666;9.160;2023-04-26T22:03:33;97019.97;;;11.35;100.00
13594;BME280;6449;47.666;9.160;2023-04-26T22:08:27;97023.03;;;11.18;100.00
13594;BME280;6449;47.666;9.160;2023-04-26T22:13:21;97029.94;;;11.08;100.00
13594;BME280;6449;47.666;9.160;2023-04-26T22:18:15;97031.66;;;11.20;100.00
13594;BME280;6449;47.666;9.160;2023-04-26T22:23:10;97035.25;;;11.19;100.00
13594;BME280;6449;47.666;9.160;2023-04-26T22:28:04;97031.88;;;11.17;100.00
13594;BME280;6449;47.666;9.160;2023-04-26T22:32:57;97036.78;;;11.21;100.00
13594;BME280;6449;47.666;9.160;2023-04-26T22:37:52;97043.66;;;11.11;100.00
13594;BME280;6449;47.666;9.160;2023-04-26T22:42:48;97045.94;;;11.16;100.00
13594;BME280;6449;47.666;9.160;2023-04-26T22:47:41;97055.97;;;11.11;100.00
13594;BME280;6449;47.666;9.160;2023-04-26T22:52:36;97064.28;;;11.05;100.00
13594;BME280;6449;47.666;9.160;2023-04-26T22:57:29;97065.00;;;11.07;100.00
13594;BME280;6449;47.666;9.160;2023-04-26T23:02:24;97060.97;;;11.02;100.00
13594;BME280;6449;47.666;9.160;2023-04-26T23:07:18;97060.91;;;10.91;100.00
13594;BME280;6449;47.666;9.160;2023-04-26T23:12:16;97042.94;;;10.98;100.00
13594;BME280;6449;47.666;9.160;2023-04-26T23:17:11;97040.16;;;10.88;100.00
13594;BME280;6449;47.666;9.160;2023-04-26T23:22:06;97046.47;;;10.86;100.00
13594;BME280;6449;47.666;9.160;2023-04-26T23:26:59;97034.91;;;10.88;100.00
13594;BME280;6449;47.666;9.160;2023-04-26T23:31:53;97038.47;;;10.76;100.00
13594;BME280;6449;47.666;9.160;2023-04-26T23:36:47;97038.34;;;10.54;100.00
13594;BME280;6449;47.666;9.160;2023-04-26T23:41:42;97040.59;;;10.71;100.00
13594;BME280;6449;47.666;9.160;2023-04-26T23:46:35;97045.38;;;10.77;100.00
13594;BME280;6449;47.666;9.160;2023-04-26T23:51:29;97040.38;;;10.85;100.00
13594;BME280;6449;47.666;9.160;2023-04-26T23:56:23;97028.56;;;10.80;100.00
